createdAt,value
2022-10-13T00:01:45.556Z,19.30
2022-10-13T00:04:14.329Z,21.57
2022-10-13T00:06:41.735Z,21.33
2022-10-13T00:09:09.245Z,23.60
2022-10-13T00:11:36.640Z,19.50
2022-10-13T00:14:05.433Z,24.53
2022-10-13T00:16:36.262Z,24.60
2022-10-13T00:19:03.751Z,20.23
2022-10-13T00:21:32.609Z,19.93
2022-10-13T00:24:00.102Z,20.80
2022-10-13T00:26:27.959Z,22.13
2022-10-13T00:28:55.725Z,22.00
2022-10-13T00:31:25.042Z,19.83
2022-10-13T00:33:52.800Z,20.90
2022-10-13T00:36:22.073Z,21.30
2022-10-13T00:38:50.932Z,18.70
2022-10-13T00:41:18.655Z,21.63
2022-10-13T00:43:51.902Z,22.33
2022-10-13T00:46:20.025Z,20.57
2022-10-13T00:48:48.079Z,20.30
2022-10-13T00:51:17.305Z,23.17
2022-10-13T00:53:44.909Z,21.37
2022-10-13T00:56:15.149Z,19.53
2022-10-13T00:58:43.927Z,24.10
2022-10-13T01:01:11.817Z,20.20
2022-10-13T01:03:39.614Z,18.87
2022-10-13T01:06:08.066Z,23.33
2022-10-13T01:08:35.760Z,21.17
2022-10-13T01:11:18.197Z,22.87
2022-10-13T01:13:51.733Z,25.80
2022-10-13T01:16:23.426Z,22.33
2022-10-13T01:18:56.646Z,22.70
2022-10-13T01:21:29.180Z,21.17
2022-10-13T01:24:22.640Z,21.23
2022-10-13T01:27:08.997Z,23.87
2022-10-13T01:30:10.409Z,20.07
2022-10-13T01:32:52.304Z,22.97
2022-10-13T01:35:22.879Z,21.30
2022-10-13T01:37:56.690Z,21.37
2022-10-13T01:40:27.193Z,26.07
2022-10-13T01:42:58.829Z,22.50
2022-10-13T01:45:32.314Z,23.33
2022-10-13T01:48:00.635Z,21.47
2022-10-13T01:50:29.085Z,23.83
2022-10-13T01:52:56.846Z,22.30
2022-10-13T01:55:24.348Z,23.17
2022-10-13T01:57:51.726Z,24.63
2022-10-13T02:00:22.366Z,22.23
2022-10-13T02:03:00.613Z,20.30
2022-10-13T02:05:37.190Z,22.20
2022-10-13T02:08:09.718Z,23.47
2022-10-13T02:10:43.078Z,22.97
2022-10-13T02:13:14.009Z,21.97
2022-10-13T02:15:44.374Z,23.77
2022-10-13T02:18:14.987Z,23.53
2022-10-13T02:20:44.307Z,27.67
2022-10-13T02:23:14.347Z,25.40
2022-10-13T02:25:42.426Z,21.00
2022-10-13T02:28:11.079Z,24.27
2022-10-13T02:30:43.792Z,24.73
2022-10-13T02:33:14.195Z,23.93
2022-10-13T02:35:41.917Z,28.57
2022-10-13T02:38:09.450Z,27.70
2022-10-13T02:40:36.953Z,27.07
2022-10-13T02:43:04.440Z,21.97
2022-10-13T02:45:31.806Z,22.50
2022-10-13T02:47:59.232Z,22.93
2022-10-13T02:50:28.145Z,20.83
2022-10-13T02:52:57.335Z,24.90
2022-10-13T02:55:24.791Z,29.13
2022-10-13T02:57:56.829Z,25.63
2022-10-13T03:00:24.355Z,23.13
2022-10-13T03:02:51.726Z,25.70
2022-10-13T03:05:19.105Z,24.73
2022-10-13T03:07:47.858Z,26.63
2022-10-13T03:10:15.238Z,22.27
2022-10-13T03:12:42.651Z,24.77
2022-10-13T03:15:10.554Z,28.60
2022-10-13T03:17:37.961Z,29.77
2022-10-13T03:20:06.741Z,22.50
2022-10-13T03:22:34.327Z,23.67
2022-10-13T03:25:03.570Z,28.17
2022-10-13T03:27:31.002Z,23.00
2022-10-13T03:29:58.502Z,28.03
2022-10-13T03:32:26.026Z,24.37
2022-10-13T03:34:53.374Z,23.60
2022-10-13T03:37:20.897Z,24.50
2022-10-13T03:39:48.276Z,26.80
2022-10-13T03:42:18.013Z,27.80
2022-10-13T03:44:52.355Z,27.20
2022-10-13T03:47:22.695Z,24.83
2022-10-13T03:49:50.102Z,23.90
2022-10-13T03:52:17.871Z,26.07
2022-10-13T03:54:45.469Z,24.77
2022-10-13T03:57:12.908Z,25.00
2022-10-13T03:59:41.993Z,28.33
2022-10-13T04:02:09.649Z,23.67
2022-10-13T04:04:38.295Z,25.47
2022-10-13T04:07:08.578Z,23.43
2022-10-13T04:09:36.010Z,24.00
2022-10-13T04:12:03.443Z,24.87
2022-10-13T04:14:30.894Z,24.50
2022-10-13T04:17:05.746Z,24.63
2022-10-13T04:19:33.218Z,26.97
2022-10-13T04:22:05.997Z,29.30
2022-10-13T04:24:34.024Z,23.33
2022-10-13T04:27:01.398Z,25.83
2022-10-13T04:29:28.896Z,27.37
2022-10-13T04:31:56.287Z,30.47
2022-10-13T04:34:24.974Z,25.33
2022-10-13T04:36:52.631Z,23.50
2022-10-13T04:39:20.149Z,23.70
2022-10-13T04:41:50.614Z,25.77
2022-10-13T04:44:17.981Z,26.60
2022-10-13T04:46:45.340Z,26.90
2022-10-13T04:49:12.848Z,27.13
2022-10-13T04:51:42.963Z,24.13
2022-10-13T04:54:10.446Z,24.03
2022-10-13T04:56:37.996Z,27.77
2022-10-13T04:59:06.197Z,24.07
2022-10-13T05:01:34.099Z,24.43
2022-10-13T05:04:03.090Z,26.67
2022-10-13T05:06:53.279Z,22.57
2022-10-13T05:09:26.551Z,23.13
2022-10-13T05:11:55.027Z,25.73
2022-10-13T05:14:22.426Z,24.57
2022-10-13T05:16:49.953Z,25.03
2022-10-13T05:19:17.329Z,26.57
2022-10-13T05:21:44.715Z,26.30
2022-10-13T05:24:13.586Z,24.33
2022-10-13T05:26:42.834Z,23.33
2022-10-13T05:29:10.231Z,25.00
2022-10-13T05:31:38.088Z,28.20
2022-10-13T05:34:05.538Z,24.20
2022-10-13T05:36:34.449Z,23.43
2022-10-13T05:39:05.001Z,22.47
2022-10-13T05:41:32.853Z,25.30
2022-10-13T05:44:03.376Z,24.87
2022-10-13T05:46:31.017Z,23.13
2022-10-13T05:48:58.406Z,28.00
2022-10-13T05:51:28.261Z,24.63
2022-10-13T05:54:00.657Z,25.80
2022-10-13T05:56:31.641Z,24.77
2022-10-13T05:59:03.852Z,23.17
2022-10-13T06:01:32.856Z,23.57
2022-10-13T06:04:04.155Z,24.03
2022-10-13T06:06:31.898Z,24.23
2022-10-13T06:08:59.573Z,25.60
2022-10-13T06:11:27.004Z,23.47
2022-10-13T06:13:54.396Z,24.07
2022-10-13T06:16:23.069Z,23.63
2022-10-13T06:18:50.541Z,25.87
2022-10-13T06:21:18.204Z,22.90
2022-10-13T06:23:45.543Z,23.90
2022-10-13T06:26:12.988Z,23.23
2022-10-13T06:28:40.402Z,24.40
2022-10-13T06:31:07.989Z,23.83
2022-10-13T06:33:36.733Z,23.87
2022-10-13T06:36:04.912Z,23.67
2022-10-13T06:38:32.815Z,23.63
2022-10-13T06:41:01.161Z,25.07
2022-10-13T06:43:35.741Z,24.03
2022-10-13T06:46:10.390Z,25.37
2022-10-13T06:48:39.143Z,25.43
2022-10-13T06:51:08.443Z,24.43
2022-10-13T06:53:36.315Z,21.87
2022-10-13T06:56:05.496Z,22.87
2022-10-13T06:58:33.205Z,23.20
2022-10-13T07:01:00.703Z,22.30
2022-10-13T07:03:28.121Z,23.00
2022-10-13T07:06:01.294Z,23.27
2022-10-13T07:08:28.760Z,22.80
2022-10-13T07:10:56.189Z,22.53
2022-10-13T07:13:23.522Z,22.30
2022-10-13T07:15:51.071Z,23.23
2022-10-13T07:18:18.429Z,23.37
2022-10-13T07:20:45.997Z,23.27
2022-10-13T07:23:14.977Z,23.17
2022-10-13T07:25:42.396Z,22.67
2022-10-13T07:28:09.756Z,22.40
2022-10-13T07:30:39.570Z,22.77
2022-10-13T07:33:07.216Z,23.07
2022-10-13T07:35:34.718Z,24.37
2022-10-13T07:38:02.049Z,23.03
2022-10-13T07:40:30.761Z,23.10
2022-10-13T07:42:58.506Z,22.70
2022-10-13T07:45:26.431Z,23.83
2022-10-13T07:47:53.906Z,23.27
2022-10-13T07:50:21.368Z,23.63
2022-10-13T07:52:48.744Z,24.13
2022-10-13T07:55:16.266Z,26.63
2022-10-13T07:57:45.713Z,25.20
2022-10-13T08:00:14.081Z,25.10
2022-10-13T08:02:42.265Z,25.13
2022-10-13T08:05:10.017Z,24.43
2022-10-13T08:07:37.988Z,25.43
2022-10-13T08:10:06.108Z,24.20
2022-10-13T08:12:33.514Z,23.70
2022-10-13T08:15:05.988Z,24.57
2022-10-13T08:17:34.170Z,25.23
2022-10-13T08:20:01.568Z,24.97
2022-10-13T08:22:28.958Z,24.73
2022-10-13T08:24:56.734Z,24.80
2022-10-13T08:27:37.038Z,25.20
2022-10-13T08:30:15.232Z,25.07
2022-10-13T08:32:42.643Z,24.73
2022-10-13T08:35:10.203Z,25.00
2022-10-13T08:37:37.679Z,25.83
2022-10-13T08:40:05.729Z,25.60
2022-10-13T08:42:33.125Z,27.10
2022-10-13T08:47:54.134Z,25.00
2022-10-13T08:50:24.800Z,25.47
2022-10-13T08:52:55.079Z,24.13
2022-10-13T08:55:26.257Z,24.40
2022-10-13T08:57:53.774Z,25.40
2022-10-13T09:00:26.700Z,24.80
2022-10-13T09:02:59.013Z,25.77
2022-10-13T09:05:33.781Z,25.43
2022-10-13T09:08:05.986Z,24.53
2022-10-13T09:10:33.422Z,24.60
2022-10-13T09:13:01.184Z,27.00
2022-10-13T09:15:28.592Z,26.20
2022-10-13T09:18:11.777Z,24.97
2022-10-13T09:20:39.330Z,26.37
2022-10-13T09:23:19.951Z,25.13
2022-10-13T09:25:49.393Z,25.93
2022-10-13T09:28:20.963Z,25.50
2022-10-13T09:30:49.137Z,25.33
2022-10-13T09:33:22.162Z,26.03
2022-10-13T09:35:51.180Z,25.40
2022-10-13T09:38:20.766Z,25.83
2022-10-13T09:40:58.484Z,25.17
2022-10-13T09:43:31.062Z,26.33
2022-10-13T09:45:59.092Z,26.03
2022-10-13T09:48:29.122Z,26.00
2022-10-13T09:50:58.040Z,26.03
2022-10-13T09:53:30.985Z,26.83
2022-10-13T09:56:19.383Z,25.90
2022-10-13T09:58:50.623Z,25.90
2022-10-13T10:01:23.703Z,27.10
2022-10-13T10:03:52.987Z,25.50
2022-10-13T10:06:21.751Z,27.07
2022-10-13T10:09:03.333Z,25.63
2022-10-13T10:11:34.847Z,25.93
2022-10-13T10:14:06.202Z,25.73
2022-10-13T10:16:37.052Z,26.87
2022-10-13T10:19:11.250Z,25.83
2022-10-13T10:21:43.233Z,26.07
2022-10-13T10:24:18.618Z,26.20
2022-10-13T10:26:52.268Z,26.97
2022-10-13T10:29:33.467Z,26.33
2022-10-13T10:32:10.776Z,26.70
2022-10-13T10:34:43.962Z,25.50
2022-10-13T10:37:29.630Z,26.57
2022-10-13T10:40:05.125Z,26.13
2022-10-13T10:42:49.733Z,25.83
2022-10-13T10:45:21.545Z,25.03
2022-10-13T10:47:52.078Z,24.93
2022-10-13T10:50:22.309Z,25.90
2022-10-13T10:52:55.923Z,25.57
2022-10-13T10:55:29.838Z,26.17
2022-10-13T10:58:06.056Z,25.13
2022-10-13T11:00:39.367Z,25.80
2022-10-13T11:03:11.550Z,26.07
2022-10-13T11:06:05.015Z,25.73
2022-10-13T11:08:41.740Z,26.23
2022-10-13T11:11:38.196Z,25.20
2022-10-13T11:14:31.125Z,25.70
2022-10-13T11:17:17.577Z,25.33
2022-10-13T11:19:46.113Z,26.20
2022-10-13T11:22:17.935Z,25.30
2022-10-13T11:24:58.416Z,25.77
2022-10-13T11:27:43.273Z,24.70
2022-10-13T11:30:40.716Z,24.20
2022-10-13T11:33:48.016Z,24.50
2022-10-13T11:36:32.447Z,23.60
2022-10-13T11:39:07.946Z,23.67
2022-10-13T11:41:43.073Z,23.90
2022-10-13T11:44:18.174Z,22.47
2022-10-13T11:46:57.666Z,23.93
2022-10-13T11:49:43.132Z,23.30
2022-10-13T11:52:30.345Z,22.57
2022-10-13T11:55:04.804Z,23.73
2022-10-13T11:57:32.940Z,23.07
2022-10-13T12:00:02.957Z,22.47
2022-10-13T12:02:48.473Z,22.80
2022-10-13T12:05:24.147Z,22.10
2022-10-13T12:07:53.066Z,21.90
2022-10-13T12:10:24.742Z,22.80
2022-10-13T12:12:52.213Z,22.60
2022-10-13T12:15:30.477Z,22.43
2022-10-13T12:17:57.855Z,23.17
2022-10-13T12:20:27.028Z,22.57
2022-10-13T12:22:55.912Z,22.63
2022-10-13T12:25:26.673Z,22.00
2022-10-13T12:27:59.970Z,22.33
2022-10-13T12:30:29.438Z,22.00
2022-10-13T12:32:58.432Z,22.63
2022-10-13T12:35:29.081Z,22.83
2022-10-13T12:37:57.272Z,22.10
2022-10-13T12:40:26.224Z,22.60
2022-10-13T12:42:54.080Z,23.80
2022-10-13T12:45:22.725Z,22.17
2022-10-13T12:47:51.734Z,22.07
2022-10-13T12:50:37.814Z,21.97
2022-10-13T12:53:12.423Z,22.50
2022-10-13T12:55:49.680Z,21.33
2022-10-13T12:58:22.920Z,21.20
2022-10-13T13:00:59.558Z,21.37
2022-10-13T13:03:28.651Z,21.87
2022-10-13T13:06:23.748Z,21.93
2022-10-13T13:09:25.564Z,21.90
2022-10-13T13:12:21.303Z,21.17
2022-10-13T13:14:50.943Z,22.23
2022-10-13T13:17:57.944Z,22.20
2022-10-13T13:20:23.201Z,21.80
2022-10-13T13:22:51.590Z,21.07
2022-10-13T13:25:18.997Z,21.27
2022-10-13T13:27:47.927Z,21.73
2022-10-13T13:30:19.904Z,21.73
2022-10-13T13:32:48.235Z,21.40
2022-10-13T13:35:15.889Z,21.50
2022-10-13T13:37:45.676Z,21.00
2022-10-13T13:40:17.358Z,21.77
2022-10-13T13:42:45.102Z,21.80
2022-10-13T13:45:14.720Z,22.37
2022-10-13T13:47:42.186Z,21.80
2022-10-13T13:50:15.143Z,21.53
2022-10-13T13:52:45.564Z,21.20
2022-10-13T13:55:14.647Z,21.00
2022-10-13T13:57:42.812Z,22.30
2022-10-13T14:00:12.401Z,21.43
2022-10-13T14:02:42.708Z,21.03
2022-10-13T14:05:11.062Z,21.40
2022-10-13T14:07:38.569Z,20.70
2022-10-13T14:10:07.139Z,21.03
2022-10-13T14:12:35.367Z,36.03
2022-10-13T14:15:02.927Z,45.97
2022-10-13T14:17:30.362Z,83.37
2022-10-13T14:19:59.339Z,48.07
2022-10-13T14:22:27.013Z,23.60
2022-10-13T14:24:54.688Z,26.63
2022-10-13T14:27:22.790Z,28.60
2022-10-13T14:29:50.502Z,32.80
2022-10-13T14:32:18.820Z,26.13
2022-10-13T14:34:46.508Z,24.23
2022-10-13T14:37:15.277Z,26.53
2022-10-13T14:39:42.692Z,23.07
2022-10-13T14:42:10.161Z,22.57
2022-10-13T14:44:37.753Z,21.60
2022-10-13T14:47:05.259Z,20.00
2022-10-13T14:49:32.699Z,20.13
2022-10-13T14:52:00.156Z,19.43
2022-10-13T14:54:29.847Z,19.73
2022-10-13T14:56:59.551Z,20.97
2022-10-13T14:59:27.128Z,21.77
2022-10-13T15:02:01.457Z,21.57
2022-10-13T15:04:28.933Z,22.47
2022-10-13T15:06:56.702Z,21.20
2022-10-13T15:09:33.521Z,19.90
2022-10-13T15:12:15.342Z,22.27
2022-10-13T15:14:42.750Z,20.27
2022-10-13T15:17:10.204Z,19.67
2022-10-13T15:19:37.621Z,19.00
2022-10-13T15:22:06.861Z,20.00
2022-10-13T15:24:34.306Z,20.90
2022-10-13T15:27:02.589Z,20.23
2022-10-13T15:29:32.031Z,19.77
2022-10-13T15:32:09.265Z,19.43
2022-10-13T15:34:36.854Z,19.73
2022-10-13T15:37:04.630Z,20.27
2022-10-13T15:39:32.122Z,19.70
2022-10-13T15:41:59.737Z,20.20
2022-10-13T15:44:27.632Z,20.87
2022-10-13T15:47:08.000Z,19.43
2022-10-13T15:49:38.166Z,19.13
2022-10-13T15:52:05.820Z,18.70
2022-10-13T15:54:33.495Z,19.63
2022-10-13T15:57:00.969Z,27.30
2022-10-13T15:59:28.474Z,28.27
2022-10-13T16:01:57.245Z,27.97
2022-10-13T16:04:24.902Z,28.80
2022-10-13T16:06:52.278Z,31.13
2022-10-13T16:09:19.672Z,26.67
2022-10-13T16:11:47.041Z,26.43
2022-10-13T16:14:14.377Z,24.73
2022-10-13T16:16:41.749Z,26.63
2022-10-13T16:19:10.665Z,23.27
2022-10-13T16:21:37.993Z,24.03
2022-10-13T16:24:06.157Z,25.03
2022-10-13T16:26:33.536Z,25.80
2022-10-13T16:29:01.018Z,26.40
2022-10-13T16:31:28.469Z,25.57
2022-10-13T16:33:55.993Z,27.80
2022-10-13T16:36:25.260Z,28.37
2022-10-13T16:38:54.175Z,29.73
2022-10-13T16:41:21.817Z,29.67
2022-10-13T16:43:49.505Z,34.00
2022-10-13T16:46:18.304Z,32.10
2022-10-13T16:48:46.895Z,32.20
2022-10-13T16:51:54.866Z,32.63
2022-10-13T16:54:23.565Z,33.53
2022-10-13T16:56:51.559Z,28.73
2022-10-13T16:59:18.885Z,35.03
2022-10-13T17:01:47.126Z,34.63
2022-10-13T17:04:17.323Z,37.50
2022-10-13T17:06:48.551Z,32.60
2022-10-13T17:09:15.971Z,32.43
2022-10-13T17:11:47.172Z,33.93
2022-10-13T17:14:14.530Z,35.70
2022-10-13T17:16:41.998Z,36.43
2022-10-13T17:19:10.094Z,40.20
2022-10-13T17:21:37.915Z,38.80
2022-10-13T17:24:08.281Z,38.03
2022-10-13T17:26:35.733Z,40.40
2022-10-13T17:29:04.691Z,41.80
2022-10-13T17:31:32.120Z,39.97
2022-10-13T17:34:00.291Z,35.20
2022-10-13T17:36:29.696Z,38.40
2022-10-13T17:39:02.894Z,35.70
2022-10-13T17:41:30.245Z,39.30
2022-10-13T17:43:57.673Z,34.30
2022-10-13T17:46:36.890Z,33.83
2022-10-13T17:49:06.129Z,35.13
2022-10-13T17:51:33.521Z,36.10
2022-10-13T17:54:04.683Z,38.73
2022-10-13T17:56:32.194Z,37.13
2022-10-13T17:59:00.257Z,37.87
2022-10-13T18:01:31.465Z,38.73
2022-10-13T18:04:00.962Z,37.23
2022-10-13T18:06:30.584Z,34.20
2022-10-13T18:09:01.270Z,39.53
2022-10-13T18:11:28.985Z,35.20
2022-10-13T18:13:56.365Z,40.20
2022-10-13T18:16:24.605Z,40.13
2022-10-13T18:18:54.757Z,36.27
2022-10-13T18:21:23.956Z,34.33
2022-10-13T18:23:52.933Z,36.23
2022-10-13T18:26:20.973Z,33.40
2022-10-13T18:28:49.831Z,36.53
2022-10-13T18:31:21.718Z,30.00
2022-10-13T18:33:52.778Z,36.27
2022-10-13T18:36:23.406Z,30.53
2022-10-13T18:38:50.859Z,36.37
2022-10-13T18:41:19.379Z,34.30
2022-10-13T18:43:49.129Z,30.17
2022-10-13T18:46:18.810Z,32.03
2022-10-13T18:48:48.124Z,35.67
2022-10-13T18:51:18.210Z,30.53
2022-10-13T18:53:47.095Z,31.03
2022-10-13T18:56:19.072Z,38.67
2022-10-13T18:58:46.961Z,32.93
2022-10-13T19:01:17.440Z,35.07
2022-10-13T19:03:45.451Z,27.10
2022-10-13T19:06:15.125Z,33.03
2022-10-13T19:08:48.108Z,32.47
2022-10-13T19:11:16.874Z,33.37
2022-10-13T19:13:44.560Z,27.87
2022-10-13T19:16:13.052Z,28.70
2022-10-13T19:18:40.599Z,30.30
2022-10-13T19:21:08.169Z,31.60
2022-10-13T19:23:35.545Z,31.37
2022-10-13T19:26:12.468Z,29.30
2022-10-13T19:28:42.639Z,32.03
2022-10-13T19:31:10.564Z,30.10
2022-10-13T19:33:44.821Z,34.43
2022-10-13T19:36:21.551Z,33.17
2022-10-13T19:38:49.635Z,37.13
2022-10-13T19:41:18.957Z,33.70
2022-10-13T19:43:46.375Z,30.87
2022-10-13T19:46:13.865Z,31.33
2022-10-13T19:48:41.296Z,34.93
2022-10-13T19:51:10.012Z,30.43
2022-10-13T19:53:40.860Z,32.60
2022-10-13T19:56:09.265Z,35.47
2022-10-13T19:58:37.997Z,34.00
2022-10-13T20:01:08.163Z,31.83
2022-10-13T20:03:35.756Z,35.27
2022-10-13T20:06:06.872Z,31.30
2022-10-13T20:08:39.017Z,33.50
2022-10-13T20:11:07.397Z,31.13
2022-10-13T20:13:34.859Z,31.63
2022-10-13T20:16:07.290Z,32.30
2022-10-13T20:18:34.971Z,33.63
2022-10-13T20:21:04.215Z,29.93
2022-10-13T20:23:32.697Z,27.87
2022-10-13T20:26:02.921Z,29.13
2022-10-13T20:28:39.196Z,30.70
2022-10-13T20:31:11.382Z,29.07
2022-10-13T20:33:38.921Z,28.87
2022-10-13T20:36:08.660Z,30.13
2022-10-13T20:38:36.650Z,30.57
2022-10-13T20:41:04.962Z,33.77
2022-10-13T20:43:32.381Z,29.40
2022-10-13T20:46:00.994Z,28.40
2022-10-13T20:48:45.572Z,28.20
2022-10-13T20:51:20.605Z,30.53
2022-10-13T20:53:48.558Z,28.37
2022-10-13T20:56:18.201Z,29.67
2022-10-13T20:58:46.233Z,29.20
2022-10-13T21:01:13.888Z,28.13
2022-10-13T21:03:42.656Z,27.63
2022-10-13T21:06:11.914Z,29.07
2022-10-13T21:08:39.497Z,28.73
2022-10-13T21:11:12.651Z,35.17
2022-10-13T21:13:42.457Z,30.07
2022-10-13T21:16:12.126Z,30.67
2022-10-13T21:18:39.692Z,29.03
2022-10-13T21:21:09.704Z,32.37
2022-10-13T21:23:37.208Z,30.07
2022-10-13T21:26:05.788Z,31.73
2022-10-13T21:28:33.899Z,32.27
2022-10-13T21:31:05.706Z,31.00
2022-10-13T21:33:35.698Z,32.67
2022-10-13T21:36:08.711Z,39.23
2022-10-13T21:38:36.479Z,35.70
2022-10-13T21:41:05.109Z,36.00
2022-10-13T21:43:32.677Z,35.07
2022-10-13T21:46:08.968Z,35.63
2022-10-13T21:48:43.254Z,34.30
2022-10-13T21:51:13.449Z,39.10
2022-10-13T21:53:41.202Z,37.30
2022-10-13T21:56:11.279Z,32.67
2022-10-13T21:58:39.253Z,40.43
2022-10-13T22:01:07.080Z,37.10
2022-10-13T22:03:34.818Z,35.43
2022-10-13T22:06:06.508Z,42.10
2022-10-13T22:08:38.710Z,42.80
2022-10-13T22:11:14.023Z,40.23
2022-10-13T22:13:41.581Z,44.43
2022-10-13T22:16:11.714Z,41.60
2022-10-13T22:18:43.017Z,39.30
2022-10-13T22:21:13.265Z,39.53
2022-10-13T22:23:42.086Z,38.90
2022-10-13T22:26:10.157Z,37.43
2022-10-13T22:28:38.024Z,38.33
2022-10-13T22:31:05.820Z,40.97
2022-10-13T22:33:34.810Z,48.70
2022-10-13T22:36:03.617Z,45.23
2022-10-13T22:38:30.975Z,44.37
2022-10-13T22:41:03.712Z,46.97
2022-10-13T22:43:31.105Z,51.70
2022-10-13T22:46:01.824Z,50.13
2022-10-13T22:48:29.447Z,48.30
2022-10-13T22:50:58.779Z,45.77
2022-10-13T22:53:29.789Z,45.77
2022-10-13T22:55:57.149Z,51.03
2022-10-13T22:58:25.919Z,46.60
2022-10-13T23:00:56.078Z,55.03
2022-10-13T23:03:23.740Z,57.07
2022-10-13T23:05:54.474Z,57.00
2022-10-13T23:08:21.836Z,56.00
2022-10-13T23:10:49.197Z,53.70
2022-10-13T23:13:16.649Z,64.17
2022-10-13T23:15:47.875Z,55.00
2022-10-13T23:18:15.353Z,65.13
2022-10-13T23:20:43.204Z,61.00
2022-10-13T23:23:11.041Z,64.93
2022-10-13T23:25:38.630Z,63.43
2022-10-13T23:28:06.033Z,72.73
2022-10-13T23:30:33.506Z,67.67
2022-10-13T23:33:02.265Z,70.87
2022-10-13T23:35:29.617Z,74.10
2022-10-13T23:37:57.018Z,86.13
2022-10-13T23:40:24.402Z,87.13
2022-10-13T23:42:51.986Z,81.47
2022-10-13T23:45:19.320Z,82.97
2022-10-13T23:47:46.775Z,82.80
2022-10-13T23:50:15.726Z,80.30
2022-10-13T23:52:43.076Z,85.27
2022-10-13T23:55:10.464Z,88.97
2022-10-13T23:57:37.837Z,79.40
